createdAt,value
2022-12-24T00:01:08.732Z,32.50
2022-12-24T00:03:36.606Z,34.47
2022-12-24T00:06:07.767Z,34.87
2022-12-24T00:08:34.770Z,32.73
2022-12-24T00:11:01.657Z,35.03
2022-12-24T00:13:30.650Z,32.07
2022-12-24T00:16:00.141Z,30.93
2022-12-24T00:18:27.241Z,34.00
2022-12-24T00:20:54.060Z,32.73
2022-12-24T00:23:21.145Z,31.57
2022-12-24T00:25:48.235Z,31.97
2022-12-24T00:28:17.479Z,32.43
2022-12-24T00:30:44.502Z,31.87
2022-12-24T00:33:11.378Z,31.93
2022-12-24T00:35:40.878Z,31.50
2022-12-24T00:38:09.938Z,30.40
2022-12-24T00:40:41.399Z,31.33
2022-12-24T00:43:08.186Z,32.67
2022-12-24T00:45:37.220Z,31.23
2022-12-24T00:48:04.301Z,31.13
2022-12-24T00:50:33.619Z,31.20
2022-12-24T00:53:00.609Z,31.73
2022-12-24T00:55:30.077Z,31.07
2022-12-24T00:57:56.851Z,30.43
2022-12-24T01:00:23.634Z,29.27
2022-12-24T01:02:53.157Z,28.73
2022-12-24T01:05:21.127Z,29.67
2022-12-24T01:07:50.433Z,28.23
2022-12-24T01:10:20.113Z,27.57
2022-12-24T01:12:47.146Z,28.20
2022-12-24T01:15:17.731Z,29.33
2022-12-24T01:17:44.529Z,28.77
2022-12-24T01:20:14.686Z,29.10
2022-12-24T01:22:44.514Z,29.50
2022-12-24T01:25:14.534Z,30.20
2022-12-24T01:27:43.593Z,30.77
2022-12-24T01:30:13.170Z,30.43
2022-12-24T01:32:39.945Z,30.40
2022-12-24T01:35:10.026Z,30.43
2022-12-24T01:37:39.279Z,29.97
2022-12-24T01:40:31.250Z,30.17
2022-12-24T01:43:21.920Z,31.00
2022-12-24T01:45:51.671Z,31.87
2022-12-24T01:48:26.235Z,30.60
2022-12-24T01:50:56.235Z,29.23
2022-12-24T01:53:25.754Z,31.57
2022-12-24T01:55:52.539Z,31.33
2022-12-24T01:58:19.354Z,30.87
2022-12-24T02:00:48.195Z,31.33
2022-12-24T02:03:15.041Z,31.63
2022-12-24T02:05:50.071Z,32.07
2022-12-24T02:08:17.003Z,31.83
2022-12-24T02:10:45.746Z,31.03
2022-12-24T02:13:15.242Z,31.77
2022-12-24T02:15:56.624Z,30.47
2022-12-24T02:18:29.139Z,31.47
2022-12-24T02:21:30.511Z,31.37
2022-12-24T02:24:50.207Z,29.00
2022-12-24T02:27:19.373Z,30.67
2022-12-24T02:30:08.741Z,30.57
2022-12-24T02:32:36.948Z,27.70
2022-12-24T02:35:10.733Z,29.53
2022-12-24T02:37:44.906Z,28.83
2022-12-24T02:40:29.903Z,29.77
2022-12-24T02:43:05.835Z,31.50
2022-12-24T02:45:40.485Z,31.17
2022-12-24T02:50:58.016Z,31.00
2022-12-24T02:53:27.321Z,31.87
2022-12-24T02:56:34.528Z,31.47
2022-12-24T02:59:19.267Z,31.20
2022-12-24T03:01:54.381Z,31.00
2022-12-24T03:04:53.595Z,30.73
2022-12-24T03:07:25.164Z,30.60
2022-12-24T03:10:03.982Z,30.93
2022-12-24T03:12:38.387Z,32.57
2022-12-24T03:15:06.264Z,30.80
2022-12-24T03:17:37.257Z,30.23
2022-12-24T03:20:05.525Z,31.03
2022-12-24T03:22:33.731Z,29.53
2022-12-24T03:25:03.295Z,30.60
2022-12-24T03:27:30.627Z,30.70
2022-12-24T03:30:01.852Z,30.13
2022-12-24T03:32:36.180Z,29.13
2022-12-24T03:35:07.923Z,30.63
2022-12-24T03:37:42.151Z,28.97
2022-12-24T03:40:09.525Z,28.03
2022-12-24T03:42:37.549Z,28.27
2022-12-24T03:45:04.648Z,26.67
2022-12-24T03:47:33.280Z,26.07
2022-12-24T03:50:00.048Z,25.27
2022-12-24T03:52:26.824Z,25.53
2022-12-24T03:54:53.617Z,25.77
2022-12-24T03:57:27.936Z,24.87
2022-12-24T03:59:54.776Z,26.53
2022-12-24T04:02:29.446Z,25.70
2022-12-24T04:04:56.401Z,24.53
2022-12-24T04:07:25.680Z,23.97
2022-12-24T04:09:54.552Z,25.27
2022-12-24T04:12:23.606Z,24.90
2022-12-24T04:14:52.820Z,25.47
2022-12-24T04:17:21.825Z,25.37
2022-12-24T04:19:50.820Z,25.47
2022-12-24T04:22:24.868Z,25.07
2022-12-24T04:24:54.195Z,25.80
2022-12-24T04:27:25.225Z,26.60
2022-12-24T04:29:55.095Z,26.30
2022-12-24T04:32:21.853Z,25.67
2022-12-24T04:34:51.807Z,26.20
2022-12-24T04:37:20.713Z,26.37
2022-12-24T04:39:47.549Z,27.33
2022-12-24T04:42:17.567Z,25.57
2022-12-24T04:44:44.350Z,25.60
2022-12-24T04:47:13.480Z,24.37
2022-12-24T04:49:42.375Z,23.67
2022-12-24T04:52:09.575Z,23.13
2022-12-24T04:54:36.443Z,22.73
2022-12-24T04:57:03.219Z,23.50
2022-12-24T04:59:32.013Z,23.57
2022-12-24T05:02:01.470Z,24.90
2022-12-24T05:04:28.353Z,23.23
2022-12-24T05:06:57.984Z,23.73
2022-12-24T05:09:27.332Z,24.40
2022-12-24T05:11:56.421Z,23.63
2022-12-24T05:14:25.711Z,24.93
2022-12-24T05:16:55.038Z,23.97
2022-12-24T05:19:21.920Z,23.07
2022-12-24T05:22:08.722Z,22.83
2022-12-24T05:24:56.449Z,22.93
2022-12-24T05:27:23.298Z,21.47
2022-12-24T05:29:52.582Z,23.10
2022-12-24T05:32:21.694Z,22.20
2022-12-24T05:34:50.583Z,20.70
2022-12-24T05:37:28.575Z,20.23
2022-12-24T05:40:00.446Z,19.73
2022-12-24T05:42:33.163Z,19.27
2022-12-24T05:44:59.972Z,18.27
2022-12-24T05:47:32.144Z,16.77
2022-12-24T05:50:01.485Z,15.57
2022-12-24T05:52:30.967Z,15.73
2022-12-24T05:54:59.925Z,15.93
2022-12-24T05:57:29.167Z,16.17
2022-12-24T05:59:56.080Z,15.23
2022-12-24T06:02:24.065Z,15.57
2022-12-24T06:04:55.705Z,15.63
2022-12-24T06:07:27.573Z,15.97
2022-12-24T06:09:54.389Z,14.33
2022-12-24T06:12:25.513Z,14.20
2022-12-24T06:14:54.452Z,13.87
2022-12-24T06:17:21.286Z,13.93
2022-12-24T06:19:48.134Z,14.70
2022-12-24T06:22:17.459Z,15.17
2022-12-24T06:24:44.237Z,14.67
2022-12-24T06:27:25.721Z,15.13
2022-12-24T06:29:52.563Z,14.80
2022-12-24T06:32:20.125Z,16.07
2022-12-24T06:34:46.826Z,15.63
2022-12-24T06:37:18.631Z,15.20
2022-12-24T06:39:46.373Z,16.13
2022-12-24T06:42:24.394Z,15.27
2022-12-24T06:44:53.275Z,16.17
2022-12-24T06:47:23.637Z,16.03
2022-12-24T06:49:52.925Z,15.57
2022-12-24T06:52:24.378Z,16.20
2022-12-24T06:54:51.140Z,14.83
2022-12-24T06:57:20.131Z,15.53
2022-12-24T06:59:47.689Z,15.47
2022-12-24T07:02:16.874Z,15.40
2022-12-24T07:04:43.771Z,16.47
2022-12-24T07:07:10.614Z,16.17
2022-12-24T07:09:43.297Z,17.17
2022-12-24T07:12:15.232Z,15.83
2022-12-24T07:14:44.706Z,17.17
2022-12-24T07:17:19.846Z,16.37
2022-12-24T07:19:46.742Z,16.80
2022-12-24T07:22:16.549Z,15.87
2022-12-24T07:24:43.339Z,17.30
2022-12-24T07:27:12.011Z,16.20
2022-12-24T07:29:40.108Z,16.67
2022-12-24T07:32:07.000Z,15.63
2022-12-24T07:34:33.856Z,17.30
2022-12-24T07:37:00.702Z,16.63
2022-12-24T07:39:30.028Z,18.30
2022-12-24T07:42:00.164Z,16.57
2022-12-24T07:44:26.942Z,15.70
2022-12-24T07:46:53.828Z,15.33
2022-12-24T07:49:20.715Z,16.57
2022-12-24T07:51:55.414Z,15.13
2022-12-24T07:54:22.318Z,14.80
2022-12-24T07:56:56.298Z,15.67
2022-12-24T07:59:24.961Z,15.47
2022-12-24T08:01:56.321Z,15.77
2022-12-24T08:04:23.160Z,15.90
2022-12-24T08:06:52.462Z,15.03
2022-12-24T08:09:19.330Z,14.73
2022-12-24T08:11:51.707Z,15.13
2022-12-24T08:14:21.463Z,14.43
2022-12-24T08:16:50.658Z,14.30
2022-12-24T08:19:19.894Z,14.67
2022-12-24T08:21:49.247Z,20.17
2022-12-24T08:24:16.066Z,15.63
2022-12-24T08:26:42.891Z,14.07
2022-12-24T08:29:12.216Z,13.83
2022-12-24T08:31:41.720Z,13.20
2022-12-24T08:34:11.121Z,14.40
2022-12-24T08:36:40.052Z,13.77
2022-12-24T08:39:10.178Z,13.27
2022-12-24T08:41:39.239Z,13.27
2022-12-24T08:44:08.380Z,13.30
2022-12-24T08:46:39.907Z,13.50
2022-12-24T08:49:29.562Z,12.93
2022-12-24T08:51:58.496Z,13.77
2022-12-24T08:54:30.296Z,13.07
2022-12-24T08:56:57.120Z,12.67
2022-12-24T08:59:26.103Z,12.50
2022-12-24T09:01:53.402Z,11.93
2022-12-24T09:04:20.391Z,12.50
2022-12-24T09:06:47.156Z,11.33
2022-12-24T09:09:17.021Z,11.57
2022-12-24T09:11:46.400Z,11.37
2022-12-24T09:14:15.628Z,12.20
2022-12-24T09:16:44.603Z,12.00
2022-12-24T09:19:13.636Z,12.20
2022-12-24T09:21:40.526Z,11.47
2022-12-24T09:24:07.686Z,11.37
2022-12-24T09:26:36.264Z,11.33
2022-12-24T09:29:06.126Z,11.77
2022-12-24T09:31:37.848Z,11.43
2022-12-24T09:34:07.287Z,10.77
2022-12-24T09:36:36.609Z,11.17
2022-12-24T09:39:05.782Z,11.57
2022-12-24T09:42:01.711Z,11.10
2022-12-24T09:45:13.918Z,10.70
2022-12-24T09:47:55.258Z,10.37
2022-12-24T09:50:33.012Z,11.30
2022-12-24T09:53:01.730Z,11.00
2022-12-24T09:55:51.070Z,10.80
2022-12-24T09:58:42.183Z,11.20
2022-12-24T10:01:14.636Z,10.77
2022-12-24T10:03:41.757Z,10.37
2022-12-24T10:06:42.257Z,9.73
2022-12-24T10:09:33.396Z,9.23
2022-12-24T10:12:24.402Z,9.83
2022-12-24T10:15:06.709Z,8.90
2022-12-24T10:17:46.743Z,9.70
2022-12-24T10:20:16.315Z,10.27
2022-12-24T10:23:04.704Z,9.30
2022-12-24T10:25:48.722Z,8.87
2022-12-24T10:28:19.405Z,9.27
2022-12-24T10:30:51.338Z,8.73
2022-12-24T10:33:29.483Z,9.57
2022-12-24T10:36:00.048Z,9.50
2022-12-24T10:38:29.095Z,9.57
2022-12-24T10:40:56.199Z,10.10
2022-12-24T10:43:26.147Z,10.50
2022-12-24T10:45:58.676Z,10.10
2022-12-24T10:48:53.080Z,10.43
2022-12-24T10:51:21.024Z,11.80
2022-12-24T10:54:02.058Z,10.90
2022-12-24T10:56:42.353Z,10.10
2022-12-24T10:59:28.782Z,10.03
2022-12-24T11:01:59.208Z,10.30
2022-12-24T11:04:30.797Z,9.70
2022-12-24T11:07:06.647Z,10.07
2022-12-24T11:09:40.602Z,9.97
2022-12-24T11:12:19.343Z,9.77
2022-12-24T11:14:48.369Z,9.30
2022-12-24T11:17:23.850Z,9.57
2022-12-24T11:19:50.647Z,10.53
2022-12-24T11:22:21.187Z,9.70
2022-12-24T11:25:02.634Z,11.30
2022-12-24T11:27:36.391Z,10.10
2022-12-24T11:30:15.280Z,10.90
2022-12-24T11:32:43.017Z,11.77
2022-12-24T11:35:21.723Z,11.70
2022-12-24T11:38:14.593Z,11.70
2022-12-24T11:40:47.686Z,12.07
2022-12-24T11:43:21.712Z,11.60
2022-12-24T11:45:53.210Z,11.10
2022-12-24T11:48:49.094Z,11.07
2022-12-24T11:51:23.985Z,12.85
2022-12-24T11:53:52.119Z,11.53
2022-12-24T11:56:30.767Z,12.53
2022-12-24T11:59:05.982Z,12.57
2022-12-24T12:01:37.857Z,12.27
2022-12-24T12:04:20.818Z,12.70
2022-12-24T12:06:59.111Z,12.63
2022-12-24T12:09:29.436Z,16.63
2022-12-24T12:12:07.147Z,16.13
2022-12-24T12:14:55.862Z,15.53
2022-12-24T12:17:40.920Z,13.97
2022-12-24T12:20:28.606Z,14.50
2022-12-24T12:23:34.455Z,15.00
2022-12-24T12:26:25.130Z,15.20
2022-12-24T12:29:22.566Z,13.87
2022-12-24T12:31:51.255Z,14.07
2022-12-24T12:34:44.583Z,14.30
2022-12-24T12:37:43.615Z,14.90
2022-12-24T12:40:17.511Z,14.13
2022-12-24T12:42:59.130Z,13.40
2022-12-24T12:45:57.272Z,14.10
2022-12-24T12:48:44.280Z,13.00
2022-12-24T12:51:29.457Z,12.37
2022-12-24T12:54:14.877Z,12.33
2022-12-24T12:56:44.313Z,13.33
2022-12-24T12:59:30.324Z,12.40
2022-12-24T13:02:35.947Z,12.47
2022-12-24T13:05:17.474Z,12.93
2022-12-24T13:08:02.871Z,12.60
2022-12-24T13:10:35.745Z,12.83
2022-12-24T13:13:39.661Z,13.67
2022-12-24T13:16:38.076Z,13.23
2022-12-24T13:19:36.016Z,13.50
2022-12-24T13:22:04.816Z,13.23
2022-12-24T13:24:31.846Z,13.37
2022-12-24T13:27:32.015Z,14.67
2022-12-24T13:30:08.927Z,14.43
2022-12-24T13:32:51.481Z,13.33
2022-12-24T13:35:21.254Z,13.87
2022-12-24T13:37:48.488Z,14.63
2022-12-24T13:40:25.567Z,15.23
2022-12-24T13:42:53.132Z,14.90
2022-12-24T13:45:29.163Z,14.77
2022-12-24T13:48:02.354Z,14.43
2022-12-24T13:50:35.374Z,15.00
2022-12-24T13:53:02.296Z,14.07
2022-12-24T13:55:29.088Z,13.70
2022-12-24T13:58:02.874Z,14.57
2022-12-24T14:00:44.955Z,14.67
2022-12-24T14:03:14.916Z,14.97
2022-12-24T14:05:44.881Z,15.17
2022-12-24T14:08:24.325Z,15.57
2022-12-24T14:11:17.503Z,17.30
2022-12-24T14:13:47.473Z,17.97
2022-12-24T14:16:30.534Z,16.80
2022-12-24T14:19:02.789Z,18.43
2022-12-24T14:21:38.556Z,19.30
2022-12-24T14:24:15.448Z,19.17
2022-12-24T14:27:07.733Z,19.97
2022-12-24T14:29:36.441Z,19.27
2022-12-24T14:32:12.841Z,18.43
2022-12-24T14:34:42.188Z,17.90
2022-12-24T14:37:09.515Z,17.90
2022-12-24T14:39:37.598Z,17.23
2022-12-24T14:42:32.119Z,16.20
2022-12-24T14:45:30.418Z,16.90
2022-12-24T14:48:34.548Z,16.40
2022-12-24T14:51:30.838Z,16.27
2022-12-24T14:54:03.316Z,17.80
2022-12-24T14:56:34.672Z,18.00
2022-12-24T14:59:06.779Z,17.57
2022-12-24T15:01:36.304Z,20.77
2022-12-24T15:04:09.019Z,22.63
2022-12-24T15:06:49.605Z,24.73
2022-12-24T15:09:22.775Z,25.43
2022-12-24T15:11:51.187Z,27.37
2022-12-24T15:14:18.061Z,27.07
2022-12-24T15:16:55.734Z,25.60
2022-12-24T15:19:28.610Z,24.87
2022-12-24T15:21:57.674Z,25.00
2022-12-24T15:24:32.281Z,26.43
2022-12-24T15:27:05.579Z,22.70
2022-12-24T15:29:39.101Z,22.83
2022-12-24T15:32:08.145Z,21.77
2022-12-24T15:34:43.115Z,21.17
2022-12-24T15:37:19.851Z,22.17
2022-12-24T15:39:56.271Z,21.37
2022-12-24T15:42:25.647Z,21.97
2022-12-24T15:45:03.440Z,23.60
2022-12-24T15:47:38.374Z,21.13
2022-12-24T15:50:21.396Z,21.10
2022-12-24T15:52:48.681Z,22.33
2022-12-24T15:55:42.601Z,22.07
2022-12-24T15:58:17.534Z,23.37
2022-12-24T16:00:44.503Z,23.03
2022-12-24T16:03:18.361Z,21.93
2022-12-24T16:05:47.444Z,22.60
2022-12-24T16:08:16.906Z,23.40
2022-12-24T16:11:08.448Z,23.33
2022-12-24T16:13:51.122Z,23.83
2022-12-24T16:16:22.711Z,23.40
2022-12-24T16:18:55.660Z,24.90
2022-12-24T16:21:41.062Z,25.27
2022-12-24T16:24:25.461Z,24.93
2022-12-24T16:26:57.788Z,26.77
2022-12-24T16:29:24.622Z,24.97
2022-12-24T16:31:54.542Z,24.50
2022-12-24T16:34:27.364Z,26.10
2022-12-24T16:36:54.470Z,26.43
2022-12-24T16:39:31.893Z,26.13
2022-12-24T16:42:21.374Z,24.37
2022-12-24T16:44:52.445Z,26.07
2022-12-24T16:47:21.502Z,25.83
2022-12-24T16:49:48.288Z,25.70
2022-12-24T16:52:22.486Z,26.37
2022-12-24T16:54:49.773Z,25.80
2022-12-24T16:57:16.992Z,25.50
2022-12-24T16:59:48.541Z,24.73
2022-12-24T17:02:17.089Z,23.67
2022-12-24T17:04:44.364Z,24.93
2022-12-24T17:07:11.952Z,25.80
2022-12-24T17:09:38.706Z,24.37
2022-12-24T17:12:05.859Z,26.53
2022-12-24T17:14:35.058Z,25.83
2022-12-24T17:17:01.826Z,25.00
2022-12-24T17:19:28.594Z,26.07
2022-12-24T17:21:55.349Z,25.90
2022-12-24T17:24:25.241Z,24.53
2022-12-24T17:26:54.210Z,25.63
2022-12-24T17:29:20.974Z,24.93
2022-12-24T17:31:51.525Z,24.90
2022-12-24T17:34:18.316Z,25.10
2022-12-24T17:36:45.154Z,22.97
2022-12-24T17:39:17.340Z,23.47
2022-12-24T17:41:47.383Z,22.40
2022-12-24T17:44:14.734Z,22.43
2022-12-24T17:46:46.944Z,24.20
2022-12-24T17:49:13.789Z,23.60
2022-12-24T17:51:45.280Z,23.30
2022-12-24T17:54:13.006Z,22.07
2022-12-24T17:56:39.814Z,22.43
2022-12-24T17:59:06.591Z,20.53
2022-12-24T18:01:33.486Z,22.13
2022-12-24T18:04:01.737Z,23.13
2022-12-24T18:06:28.735Z,21.37
2022-12-24T18:08:57.987Z,22.70
2022-12-24T18:11:26.876Z,22.57
2022-12-24T18:14:00.095Z,23.47
2022-12-24T18:16:27.929Z,22.47
2022-12-24T18:18:57.418Z,24.00
2022-12-24T18:21:26.940Z,25.50
2022-12-24T18:23:56.593Z,26.30
2022-12-24T18:26:27.144Z,25.03
2022-12-24T18:28:57.093Z,24.37
2022-12-24T18:31:25.071Z,27.27
2022-12-24T18:33:55.827Z,27.67
2022-12-24T18:36:25.265Z,26.20
2022-12-24T18:38:54.587Z,26.67
2022-12-24T18:41:28.266Z,28.40
2022-12-24T18:43:58.675Z,26.37
2022-12-24T18:46:27.372Z,48.93
2022-12-24T18:48:55.052Z,26.70
2022-12-24T18:51:22.921Z,25.07
2022-12-24T18:53:50.278Z,25.73
2022-12-24T18:56:26.165Z,25.03
2022-12-24T18:58:57.263Z,24.73
2022-12-24T19:01:31.066Z,25.30
2022-12-24T19:03:57.926Z,24.27
2022-12-24T19:06:24.901Z,25.57
2022-12-24T19:09:00.861Z,25.37
2022-12-24T19:11:29.423Z,24.03
2022-12-24T19:14:00.811Z,23.23
2022-12-24T19:16:28.252Z,22.67
2022-12-24T19:18:55.319Z,23.00
2022-12-24T19:21:22.107Z,23.47
2022-12-24T19:23:48.991Z,23.20
2022-12-24T19:26:18.702Z,23.10
2022-12-24T19:28:45.472Z,23.03
2022-12-24T19:31:16.907Z,23.70
2022-12-24T19:33:47.735Z,22.70
2022-12-24T19:36:18.654Z,21.43
2022-12-24T19:38:45.568Z,22.97
2022-12-24T19:41:13.913Z,23.57
2022-12-24T19:43:41.967Z,22.03
2022-12-24T19:46:10.190Z,21.23
2022-12-24T19:48:39.739Z,20.63
2022-12-24T19:51:08.228Z,20.93
2022-12-24T19:53:35.320Z,20.83
2022-12-24T19:56:02.337Z,20.93
2022-12-24T19:58:33.737Z,20.20
2022-12-24T20:01:12.952Z,20.67
2022-12-24T20:03:41.973Z,20.40
2022-12-24T20:06:08.931Z,21.03
2022-12-24T20:08:38.426Z,21.30
2022-12-24T20:11:11.865Z,19.27
2022-12-24T20:13:40.949Z,19.03
2022-12-24T20:16:16.562Z,20.20
2022-12-24T20:18:43.640Z,19.63
2022-12-24T20:21:13.321Z,18.70
2022-12-24T20:23:40.665Z,19.63
2022-12-24T20:26:08.328Z,19.40
2022-12-24T20:28:36.028Z,19.90
2022-12-24T20:31:09.768Z,19.00
2022-12-24T20:33:39.387Z,18.47
2022-12-24T20:36:06.369Z,19.50
2022-12-24T20:38:35.702Z,19.87
2022-12-24T20:41:02.538Z,19.27
2022-12-24T20:43:38.410Z,19.73
2022-12-24T20:46:11.015Z,19.50
2022-12-24T20:48:38.169Z,18.73
2022-12-24T20:51:16.092Z,20.30
2022-12-24T20:53:48.259Z,18.67
2022-12-24T20:56:16.079Z,20.53
2022-12-24T20:58:46.430Z,20.30
2022-12-24T21:01:20.540Z,19.67
2022-12-24T21:03:50.155Z,20.40
2022-12-24T21:06:18.105Z,20.00
2022-12-24T21:08:48.539Z,20.33
2022-12-24T21:11:36.652Z,20.60
2022-12-24T21:14:03.475Z,20.17
2022-12-24T21:16:33.547Z,19.70
2022-12-24T21:19:00.469Z,21.47
2022-12-24T21:21:27.340Z,21.30
2022-12-24T21:23:54.190Z,20.90
2022-12-24T21:26:23.365Z,20.63
2022-12-24T21:28:50.615Z,20.40
2022-12-24T21:31:17.944Z,20.40
2022-12-24T21:33:47.401Z,21.83
2022-12-24T21:36:17.053Z,22.27
2022-12-24T21:38:43.874Z,21.17
2022-12-24T21:41:12.758Z,19.93
2022-12-24T21:43:40.635Z,21.47
2022-12-24T21:46:12.446Z,21.13
2022-12-24T21:48:57.908Z,21.93
2022-12-24T21:51:25.135Z,21.30
2022-12-24T21:54:10.412Z,21.17
2022-12-24T21:56:57.310Z,21.07
2022-12-24T21:59:26.857Z,21.20
2022-12-24T22:01:56.974Z,22.20
2022-12-24T22:04:26.555Z,22.97
2022-12-24T22:07:11.811Z,21.80
2022-12-24T22:09:57.629Z,21.53
2022-12-24T22:12:27.217Z,20.93
2022-12-24T22:14:53.981Z,21.33
2022-12-24T22:17:25.261Z,20.93
2022-12-24T22:19:53.510Z,22.33
2022-12-24T22:22:20.511Z,21.57
2022-12-24T22:24:49.595Z,22.17
2022-12-24T22:27:16.368Z,21.47
2022-12-24T22:29:43.184Z,22.03
2022-12-24T22:32:09.956Z,21.10
2022-12-24T22:34:36.780Z,22.57
2022-12-24T22:37:06.006Z,22.50
2022-12-24T22:39:32.956Z,23.17
2022-12-24T22:42:02.391Z,23.23
2022-12-24T22:44:29.184Z,23.43
2022-12-24T22:46:56.013Z,23.17
2022-12-24T22:49:25.162Z,23.73
2022-12-24T22:51:52.021Z,22.63
2022-12-24T22:54:25.711Z,22.37
2022-12-24T22:56:54.991Z,23.17
2022-12-24T22:59:24.102Z,22.73
2022-12-24T23:01:52.671Z,23.47
2022-12-24T23:04:24.514Z,24.00
2022-12-24T23:06:51.478Z,22.83
2022-12-24T23:09:18.364Z,22.90
2022-12-24T23:11:45.226Z,23.33
2022-12-24T23:14:36.163Z,29.53
2022-12-24T23:17:05.300Z,23.77
2022-12-24T23:19:33.539Z,22.37
2022-12-24T23:22:01.174Z,22.77
2022-12-24T23:24:30.476Z,23.80
2022-12-24T23:26:58.151Z,23.23
2022-12-24T23:29:25.037Z,24.80
2022-12-24T23:31:51.944Z,23.60
2022-12-24T23:34:18.768Z,22.93
2022-12-24T23:36:45.577Z,22.80
2022-12-24T23:39:14.510Z,23.57
2022-12-24T23:41:43.404Z,23.73
2022-12-24T23:44:14.989Z,23.33
2022-12-24T23:46:41.863Z,23.40
2022-12-24T23:49:16.598Z,24.17
2022-12-24T23:51:43.352Z,23.77
2022-12-24T23:54:10.139Z,23.37
2022-12-24T23:56:36.922Z,22.97
2022-12-24T23:59:08.074Z,23.00
